createdAt,value
2023-01-19T00:04:47.298Z,23.8
2023-01-19T00:10:09.717Z,23.6
2023-01-19T00:15:33.380Z,23.7
2023-01-19T00:20:58.166Z,25.9
2023-01-19T00:25:50.484Z,24.8
2023-01-19T00:31:13.269Z,23.6
2023-01-19T00:36:36.646Z,23.6
2023-01-19T00:41:58.532Z,24.5
2023-01-19T00:47:21.376Z,27
2023-01-19T00:52:44.172Z,24
2023-01-19T00:58:07.174Z,23.7
2023-01-19T01:03:45.289Z,23.7
2023-01-19T01:08:52.433Z,25.5
2023-01-19T01:14:48.665Z,25.7
2023-01-19T01:20:11.950Z,23.8
2023-01-19T01:25:35.791Z,23.8
2023-01-19T01:31:00.363Z,24.2
2023-01-19T01:36:45.363Z,26.4
2023-01-19T01:42:07.698Z,24.3
2023-01-19T01:47:14.315Z,23.8
2023-01-19T01:52:37.505Z,23.8
2023-01-19T01:58:13.349Z,24.6
2023-01-19T02:03:22.202Z,27.1
2023-01-19T02:08:46.079Z,24.1
2023-01-19T02:14:09.350Z,23.8
2023-01-19T02:19:30.886Z,23.8
2023-01-19T02:24:38.175Z,24.7
2023-01-19T02:30:00.962Z,27.1
2023-01-19T02:35:23.888Z,24.1
2023-01-19T02:40:47.010Z,23.8
2023-01-19T02:46:09.782Z,23.8
2023-01-19T02:51:32.627Z,24.7
2023-01-19T02:56:55.642Z,27.3
2023-01-19T03:02:19.423Z,24.1
2023-01-19T03:07:25.673Z,23.8
2023-01-19T03:12:32.644Z,23.8
2023-01-19T03:17:57.563Z,24.8
2023-01-19T03:23:19.309Z,27.4
2023-01-19T03:28:42.635Z,24
2023-01-19T03:34:05.773Z,23.8
2023-01-19T03:39:27.585Z,23.8
2023-01-19T03:44:35.202Z,24.9
2023-01-19T03:49:58.281Z,27.3
2023-01-19T03:55:20.098Z,24.1
2023-01-19T04:00:43.098Z,23.8
2023-01-19T04:06:06.365Z,23.8
2023-01-19T04:11:28.284Z,24.9
2023-01-19T04:16:51.281Z,27.1
2023-01-19T04:22:14.236Z,24
2023-01-19T04:27:37.560Z,23.8
2023-01-19T04:33:00.643Z,23.8
2023-01-19T04:38:10.655Z,25.3
2023-01-19T04:43:33.186Z,26.2
2023-01-19T04:48:41.354Z,23.9
2023-01-19T04:53:50.113Z,23.8
2023-01-19T04:59:12.350Z,23.8
2023-01-19T05:04:36.146Z,25.3
2023-01-19T05:09:42.896Z,26.3
2023-01-19T05:15:04.939Z,24
2023-01-19T05:20:13.805Z,23.8
2023-01-19T05:25:22.243Z,23.8
2023-01-19T05:30:29.711Z,24.8
2023-01-19T05:36:06.179Z,27.3
2023-01-19T05:41:39.096Z,24.1
2023-01-19T05:47:03.227Z,23.8
2023-01-19T05:52:25.989Z,23.8
2023-01-19T05:57:48.950Z,25.1
2023-01-19T06:03:12.368Z,24.3
2023-01-19T06:08:38.099Z,23.6
2023-01-19T06:13:45.256Z,23.6
2023-01-19T06:19:08.049Z,23.4
2023-01-19T06:24:32.819Z,23.1
2023-01-19T06:29:55.297Z,22.8
2023-01-19T06:35:18.738Z,23.6
2023-01-19T06:40:41.324Z,24.4
2023-01-19T06:46:04.763Z,23.4
2023-01-19T06:51:26.975Z,23.3
2023-01-19T06:56:39.976Z,23.1
2023-01-19T07:02:25.953Z,22.8
2023-01-19T07:07:50.566Z,22.5
2023-01-19T07:14:14.768Z,23.8
2023-01-19T07:19:38.383Z,23.8
2023-01-19T07:25:01.777Z,23.3
2023-01-19T07:30:23.452Z,23.2
2023-01-19T07:35:47.313Z,23
2023-01-19T07:41:10.000Z,22.7
2023-01-19T07:46:32.888Z,22.7
2023-01-19T07:51:55.601Z,25.3
2023-01-19T07:57:18.168Z,23.2
2023-01-19T08:02:41.862Z,23.1
2023-01-19T08:08:05.721Z,23
2023-01-19T08:13:12.475Z,22.8
2023-01-19T08:18:35.541Z,22.5
2023-01-19T08:23:58.311Z,24.8
2023-01-19T08:29:23.628Z,23.6
2023-01-19T08:34:44.098Z,23.4
2023-01-19T08:40:06.774Z,23.1
2023-01-19T08:45:38.336Z,22.9
2023-01-19T08:51:01.020Z,22.6
2023-01-19T08:56:24.253Z,22.3
2023-01-19T09:01:42.226Z,21.9
2023-01-19T09:06:50.243Z,23.2
2023-01-19T09:12:14.318Z,25.3
2023-01-19T09:17:37.143Z,23.3
2023-01-19T09:22:59.908Z,23.2
2023-01-19T09:28:22.834Z,22.9
2023-01-19T09:33:45.875Z,22.7
2023-01-19T09:39:09.480Z,22.4
2023-01-19T09:44:32.610Z,22.1
2023-01-19T09:49:55.488Z,21.8
2023-01-19T09:55:18.490Z,21.5
2023-01-19T10:00:41.695Z,21.3
2023-01-19T10:06:08.443Z,21
2023-01-19T10:11:38.071Z,20.7
2023-01-19T10:17:05.101Z,20.4
2023-01-19T10:22:14.584Z,20.2
2023-01-19T10:27:37.981Z,19.9
2023-01-19T10:33:02.438Z,19.7
2023-01-19T10:38:25.829Z,19.5
2023-01-19T10:43:35.248Z,19.3
2023-01-19T10:48:58.403Z,19.1
2023-01-19T10:54:05.755Z,18.9
2023-01-19T11:04:06.349Z,18.6
2023-01-19T11:09:13.364Z,18.4
2023-01-19T11:14:35.757Z,18.3
2023-01-19T11:19:58.315Z,18.1
2023-01-19T11:25:20.496Z,17.9
2023-01-19T11:30:43.819Z,17.8
2023-01-19T11:36:07.429Z,17.7
2023-01-19T11:41:29.903Z,17.6
2023-01-19T11:47:06.741Z,17.4
2023-01-19T11:51:59.908Z,17.3
2023-01-19T11:57:06.497Z,17.3
2023-01-19T12:02:14.400Z,17.1
2023-01-19T12:07:22.166Z,17.1
2023-01-19T12:12:29.238Z,16.9
2023-01-19T12:17:52.171Z,16.9
2023-01-19T12:23:19.259Z,16.8
2023-01-19T12:28:42.577Z,16.7
2023-01-19T12:33:51.789Z,16.6
2023-01-19T12:39:15.078Z,16.6
2023-01-19T12:44:37.868Z,16.5
2023-01-19T12:50:05.556Z,16.4
2023-01-19T12:55:30.464Z,16.4
2023-01-19T13:00:52.430Z,16.3
2023-01-19T13:06:15.706Z,16.3
2023-01-19T13:11:38.358Z,16.2
2023-01-19T13:17:06.587Z,16.2
2023-01-19T13:22:29.294Z,16.1
2023-01-19T13:27:51.774Z,16.1
2023-01-19T13:33:14.880Z,16
2023-01-19T13:38:38.405Z,15.9
2023-01-19T13:44:01.581Z,15.9
2023-01-19T13:49:11.975Z,15.9
2023-01-19T13:54:37.979Z,15.9
2023-01-19T14:00:01.269Z,15.8
2023-01-19T14:05:26.107Z,15.8
2023-01-19T14:10:49.183Z,15.8
2023-01-19T14:16:20.849Z,15.8
2023-01-19T14:21:44.993Z,15.7
2023-01-19T14:27:07.888Z,15.7
2023-01-19T14:32:30.651Z,15.6
2023-01-19T14:37:38.159Z,15.6
2023-01-19T14:43:00.939Z,15.6
2023-01-19T14:48:24.375Z,15.6
2023-01-19T14:54:01.666Z,15.6
2023-01-19T14:59:24.566Z,15.6
2023-01-19T15:05:00.885Z,15.6
2023-01-19T15:10:23.360Z,15.5
2023-01-19T15:15:30.680Z,15.5
2023-01-19T15:20:53.896Z,15.4
2023-01-19T15:26:01.646Z,15.4
2023-01-19T15:31:09.160Z,15.4
2023-01-19T15:36:18.187Z,15.4
2023-01-19T15:41:10.055Z,15.4
2023-01-19T15:46:01.328Z,15.4
2023-01-19T15:51:09.869Z,15.4
2023-01-19T15:56:02.141Z,15.4
2023-01-19T16:01:24.662Z,15.4
2023-01-19T16:06:50.559Z,15.3
2023-01-19T16:12:14.039Z,15.3
2023-01-19T16:17:38.530Z,15.3
2023-01-19T16:23:14.697Z,15.3
2023-01-19T16:28:37.973Z,15.3
2023-01-19T16:33:45.162Z,15.3
2023-01-19T16:38:54.749Z,15.3
2023-01-19T16:44:19.868Z,15.3
2023-01-19T16:49:41.957Z,15.3
2023-01-19T16:55:04.668Z,15.3
2023-01-19T17:00:12.548Z,15.3
2023-01-19T17:05:35.470Z,15.3
2023-01-19T17:10:58.630Z,21.4
2023-01-19T17:16:21.405Z,24
2023-01-19T17:21:28.291Z,23.9
2023-01-19T17:26:51.130Z,21.9
2023-01-19T17:31:43.766Z,24
2023-01-19T17:36:51.230Z,24.7
2023-01-19T17:41:58.401Z,22.1
2023-01-19T17:46:49.818Z,22.2
2023-01-19T17:51:41.625Z,23.7
2023-01-19T17:56:51.979Z,25.4
2023-01-19T18:02:15.897Z,22.6
2023-01-19T18:07:40.547Z,22.6
2023-01-19T18:12:50.529Z,22.4
2023-01-19T18:18:15.028Z,22.3
2023-01-19T18:23:39.718Z,22.1
2023-01-19T18:28:48.625Z,21.9
2023-01-19T18:34:13.792Z,21.6
2023-01-19T18:39:39.338Z,23.4
2023-01-19T18:45:04.594Z,25.1
2023-01-19T18:50:36.232Z,23
2023-01-19T18:56:11.558Z,22.8
2023-01-19T19:01:52.036Z,22.7
2023-01-19T19:07:32.775Z,22.4
2023-01-19T19:12:52.256Z,22.3
2023-01-19T19:18:12.924Z,21.9
2023-01-19T19:23:31.177Z,22.2
2023-01-19T19:28:51.791Z,24.1
2023-01-19T19:34:13.397Z,23.7
2023-01-19T19:39:54.127Z,23.1
2023-01-19T19:45:37.605Z,22.9
2023-01-19T19:51:06.486Z,22.6
2023-01-19T19:56:49.412Z,22.4
2023-01-19T20:02:14.933Z,22.1
2023-01-19T20:07:54.562Z,21.8
2023-01-19T20:13:36.978Z,23.4
2023-01-19T20:19:01.066Z,24.6
2023-01-19T20:24:39.081Z,22.7
2023-01-19T20:29:58.778Z,22.6
2023-01-19T20:35:14.577Z,22.4
2023-01-19T20:40:26.477Z,22.3
2023-01-19T20:45:39.664Z,22.1
2023-01-19T20:50:49.778Z,21.9
2023-01-19T20:56:00.522Z,21.6
2023-01-19T21:01:13.048Z,22.9
2023-01-19T21:06:26.997Z,25.1
2023-01-19T21:11:37.615Z,22.8
2023-01-19T21:16:50.881Z,22.6
2023-01-19T21:21:52.557Z,22.5
2023-01-19T21:27:00.393Z,22.4
2023-01-19T21:32:08.351Z,22.2
2023-01-19T21:37:00.351Z,21.9
2023-01-19T21:42:07.961Z,21.7
2023-01-19T21:47:15.372Z,22.4
2023-01-19T21:52:23.271Z,24.4
2023-01-19T21:57:30.319Z,23.3
2023-01-19T22:03:03.641Z,22.9
2023-01-19T22:08:11.538Z,23.9
2023-01-19T22:13:20.346Z,25.8
2023-01-19T22:18:27.739Z,27.3
2023-01-19T22:23:19.798Z,23.2
2023-01-19T22:28:27.100Z,24.9
2023-01-19T22:33:35.101Z,26.8
2023-01-19T22:38:58.728Z,23.8
2023-01-19T22:44:21.601Z,23.4
2023-01-19T22:49:46.050Z,25.2
2023-01-19T22:54:53.788Z,27.1
2023-01-19T23:00:16.220Z,23.7
2023-01-19T23:05:25.216Z,23.6
2023-01-19T23:10:48.100Z,24.5
2023-01-19T23:15:54.996Z,26.5
2023-01-19T23:21:02.515Z,24.3
2023-01-19T23:26:10.124Z,23.7
2023-01-19T23:31:32.946Z,23.7
2023-01-19T23:36:55.171Z,25.4
2023-01-19T23:42:17.358Z,27.3
2023-01-19T23:47:40.132Z,23.8
2023-01-19T23:52:31.437Z,23.8
2023-01-19T23:57:23.242Z,24.1
